General Downing - Peoria International Airport (PIA)


Airport Diagram
Current Weather/Forecast (VFR Conditions)
METAR KPIA 201654Z 10SM CLR M04/M10 A3023 RMK AO2 SLP246 T10391100 $
TAF KPIA 201120Z 2012/2112 00000KT P6SM FEW250 FM201900 19013G23KT P6SM SKC FM210000 23011G19KT P6SM SKC WS020/23045KT FM210500 24010KT P6SM FEW250

All Charts
General
Chart Name Download
AIRPORT DIAGRAM
TAKEOFF MINIMUMS
ALTERNATE MINIMUMS
HOT SPOT

Approaches
Chart Name Download
HI-ILS OR LOC RWY 31
ILS OR LOC RWY 04
ILS OR LOC RWY 13
ILS OR LOC RWY 31
ILS RWY 04 (SA CAT I - II)
RNAV (GPS) RWY 04
RNAV (GPS) RWY 13
RNAV (GPS) RWY 22
RNAV (GPS) RWY 31
HI-VOR/DME OR TACAN RWY 31
VOR/DME OR TACAN RWY 31
VOR OR TACAN RWY 13
NDB RWY 31